Demster, New York
Current Conditions -  °F | °C
As of 10:54 AM on Wednesday 28 Jan 2015 (Local Time) from KFZY Reporting Station
Unknown Precip Unknown Precip  
Wind Chill:   Ceiling: Unl
Heat Index: 17°   Visibility: 10mi
Dew Point:   Wind: 12mph
Humidity: 54%   Direction: 320°NW
Pressure: 30.24"   Gusts: NA
Location:  43.4571°N, 76.4163°W
Report Text: KFZY 281554Z AUTO 32010KT 10SM UP CLR M08/M16 A3024 RMK AO2 UPB05 SLP249 P0000 T10831161
Loading
Personal Weather Stations






























Interactive Weather Map New forecast layout! Learn more

10-Day Weather Forecast

Advertisements
Track Severe Weather on mobile